createdAt,value
2023-04-22T06:40:13.659Z,40.06
2023-04-22T06:43:22.940Z,39.42
2023-04-22T06:46:31.494Z,38.26
2023-04-22T06:49:38.425Z,37.10
2023-04-22T06:52:43.284Z,37.13
2023-04-22T06:55:48.867Z,34.75
2023-04-22T06:58:51.929Z,29.28
2023-04-22T07:01:55.008Z,27.46
2023-04-22T07:04:57.953Z,28.36
2023-04-22T07:08:01.174Z,26.52
2023-04-22T07:11:04.087Z,27.43
2023-04-22T07:14:07.610Z,25.41
2023-04-22T07:17:10.789Z,25.77
2023-04-22T07:20:13.760Z,25.23
2023-04-22T07:23:16.500Z,25.57
2023-04-22T07:26:19.481Z,25.02
2023-04-22T07:29:22.447Z,25.74
2023-04-22T07:32:27.862Z,26.39
2023-04-22T07:35:31.711Z,27.30
2023-04-22T07:38:34.744Z,25.36
2023-04-22T07:41:37.440Z,27.35
2023-04-22T07:44:40.370Z,26.17
2023-04-22T07:47:44.164Z,25.63
2023-04-22T07:50:56.262Z,25.56
2023-04-22T07:54:09.138Z,24.26
2023-04-22T07:57:14.921Z,23.29
2023-04-22T08:00:20.692Z,23.93
2023-04-22T08:03:46.605Z,25.07
2023-04-22T08:06:57.526Z,25.23
2023-04-22T08:10:00.954Z,23.29
2023-04-22T08:13:03.640Z,23.61
2023-04-22T08:16:07.569Z,24.83
2023-04-22T08:19:10.354Z,24.09
2023-04-22T08:22:14.780Z,25.25
2023-04-22T08:25:17.587Z,25.64
2023-04-22T08:28:25.817Z,25.14
2023-04-22T08:31:31.119Z,25.10
2023-04-22T08:34:34.573Z,25.69
2023-04-22T08:37:37.709Z,25.02
2023-04-22T08:40:42.387Z,25.40
2023-04-22T08:43:46.437Z,25.01
2023-04-22T08:46:51.014Z,24.59
2023-04-22T08:49:58.852Z,24.24
2023-04-22T08:53:11.894Z,24.96
2023-04-22T08:56:17.295Z,25.00
2023-04-22T08:59:23.107Z,25.10
2023-04-22T09:02:28.916Z,25.72
2023-04-22T09:05:34.419Z,25.33
2023-04-22T09:08:57.370Z,24.85
2023-04-22T09:12:00.325Z,24.02
2023-04-22T09:15:04.131Z,24.40
2023-04-22T09:18:09.996Z,24.58
2023-04-22T09:21:13.032Z,23.92
2023-04-22T09:24:16.940Z,22.61
2023-04-22T09:27:22.390Z,25.10
2023-04-22T09:30:36.591Z,23.62
2023-04-22T09:33:40.089Z,23.98
2023-04-22T09:36:45.703Z,25.70
2023-04-22T09:39:50.384Z,23.30
2023-04-22T09:42:55.481Z,21.73
2023-04-22T09:46:01.507Z,21.91
2023-04-22T09:49:04.410Z,22.39
2023-04-22T09:52:07.202Z,23.65
2023-04-22T09:55:11.566Z,23.25
2023-04-22T09:58:16.271Z,24.12
2023-04-22T10:01:34.938Z,25.15
2023-04-22T10:04:43.895Z,23.05
2023-04-22T10:07:46.826Z,24.69
2023-04-22T10:10:50.043Z,25.85
2023-04-22T10:13:52.761Z,25.06
2023-04-22T10:17:06.000Z,24.91
2023-04-22T10:20:19.049Z,24.78
2023-04-22T10:23:27.470Z,23.96
2023-04-22T10:26:49.124Z,25.54
2023-04-22T10:29:52.407Z,24.83
2023-04-22T10:32:55.096Z,23.45
2023-04-22T10:36:11.553Z,23.56
2023-04-22T10:39:17.733Z,22.27
2023-04-22T10:42:21.912Z,23.97
2023-04-22T10:45:26.807Z,23.44
2023-04-22T10:48:50.716Z,23.27
2023-04-22T10:51:55.255Z,23.69
2023-04-22T10:55:07.878Z,23.32
2023-04-22T10:58:20.377Z,24.33
2023-04-22T11:05:19.993Z,24.74
2023-04-22T11:08:28.445Z,25.95
2023-04-22T11:11:32.129Z,26.83
2023-04-22T11:14:36.138Z,27.38
2023-04-22T11:17:42.053Z,27.08
2023-04-22T11:20:45.328Z,25.99
2023-04-22T11:23:56.292Z,26.08
2023-04-22T11:26:59.251Z,25.60
2023-04-22T11:30:21.837Z,26.39
2023-04-22T11:33:24.835Z,26.96
2023-04-22T11:36:27.781Z,27.32
2023-04-22T11:39:43.622Z,27.24
2023-04-22T11:42:56.938Z,27.46
2023-04-22T11:45:59.854Z,26.72
2023-04-22T11:49:16.506Z,26.74
2023-04-22T11:52:19.652Z,26.83
2023-04-22T11:55:30.887Z,24.43
2023-04-22T11:58:34.012Z,24.91
2023-04-22T12:01:36.771Z,24.82
2023-04-22T12:04:40.721Z,22.99
2023-04-22T12:07:43.228Z,26.30
2023-04-22T12:10:50.800Z,26.41
2023-04-22T12:13:54.284Z,26.53
2023-04-22T12:16:57.108Z,28.54
2023-04-22T12:19:59.657Z,27.16
2023-04-22T12:23:04.772Z,27.34
2023-04-22T12:26:07.295Z,28.27
2023-04-22T12:29:10.686Z,27.52
2023-04-22T12:32:13.341Z,27.46
2023-04-22T12:35:16.322Z,27.55
2023-04-22T12:38:19.397Z,28.08
2023-04-22T12:41:23.714Z,27.88
2023-04-22T12:44:26.348Z,27.57
2023-04-22T12:47:29.203Z,27.81
2023-04-22T12:50:32.173Z,27.31
2023-04-22T12:53:36.672Z,27.98
2023-04-22T12:56:39.378Z,27.57
2023-04-22T12:59:42.492Z,28.51
2023-04-22T13:02:47.745Z,29.41
2023-04-22T13:05:52.320Z,28.32
2023-04-22T13:08:55.037Z,28.87
2023-04-22T13:11:58.452Z,29.01
2023-04-22T13:15:02.056Z,28.75
2023-04-22T13:18:05.817Z,28.07
2023-04-22T13:21:08.514Z,27.95
2023-04-22T13:24:11.485Z,27.86
2023-04-22T13:27:14.169Z,27.91
2023-04-22T13:30:17.037Z,28.48
2023-04-22T13:33:23.014Z,27.73
2023-04-22T13:36:26.305Z,26.94
2023-04-22T13:39:28.923Z,28.03
2023-04-22T13:42:31.839Z,27.80
2023-04-22T13:45:36.490Z,28.35
2023-04-22T13:48:39.530Z,28.45
2023-04-22T13:51:42.317Z,28.24
2023-04-22T13:54:45.885Z,28.57
2023-04-22T13:57:51.010Z,28.68
2023-04-22T14:00:53.956Z,29.10
2023-04-22T14:03:56.917Z,28.77
2023-04-22T14:07:00.890Z,28.94
2023-04-22T14:10:04.119Z,28.12
2023-04-22T14:13:06.901Z,28.45
2023-04-22T14:16:11.864Z,28.24
2023-04-22T14:19:15.623Z,28.50
2023-04-22T14:22:18.474Z,28.73
2023-04-22T14:25:20.968Z,28.49
2023-04-22T14:28:27.899Z,28.99
2023-04-22T14:31:30.567Z,28.74
2023-04-22T14:34:33.771Z,28.30
2023-04-22T14:37:36.325Z,28.16
2023-04-22T14:40:39.409Z,28.61
2023-04-22T14:43:41.887Z,29.00
2023-04-22T14:46:45.228Z,29.07
2023-04-22T14:49:48.113Z,29.16
2023-04-22T14:52:51.492Z,28.73
2023-04-22T14:55:54.128Z,28.40
2023-04-22T14:58:57.085Z,28.65
2023-04-22T15:01:59.833Z,28.95
2023-04-22T15:05:03.810Z,28.72
2023-04-22T15:08:06.600Z,27.84
2023-04-22T15:11:09.668Z,27.66
2023-04-22T15:14:12.327Z,27.67
2023-04-22T15:17:15.319Z,27.97
2023-04-22T15:20:18.636Z,28.85
2023-04-22T15:23:24.291Z,28.96
2023-04-22T15:26:27.007Z,29.28
2023-04-22T15:29:30.247Z,28.97
2023-04-22T15:32:36.163Z,28.34
2023-04-22T15:35:39.127Z,28.62
2023-04-22T15:38:41.735Z,28.85
2023-04-22T15:41:46.861Z,29.39
2023-04-22T15:44:50.842Z,28.76
2023-04-22T15:47:54.018Z,28.89
2023-04-22T15:51:00.620Z,29.07
2023-04-22T15:54:03.946Z,29.09
2023-04-22T15:57:06.580Z,29.61
2023-04-22T16:00:13.386Z,29.87
2023-04-22T16:03:16.674Z,29.39
2023-04-22T16:06:20.023Z,29.38
2023-04-22T16:09:22.688Z,29.93
2023-04-22T16:12:25.992Z,29.87
2023-04-22T16:15:32.786Z,30.41
2023-04-22T16:18:35.914Z,30.39
2023-04-22T16:21:38.523Z,30.61
2023-04-22T16:24:43.950Z,30.90
2023-04-22T16:27:47.363Z,31.53
2023-04-22T16:30:50.697Z,31.12
2023-04-22T16:33:53.300Z,31.62
2023-04-22T16:36:56.371Z,31.64
2023-04-22T16:39:58.981Z,31.25
2023-04-22T16:43:05.246Z,31.40
2023-04-22T16:46:10.620Z,32.08
2023-04-22T16:49:13.888Z,32.42
2023-04-22T16:52:18.010Z,32.20
2023-04-22T16:55:21.149Z,32.09
2023-04-22T16:58:24.679Z,32.43
2023-04-22T17:01:28.784Z,32.68
2023-04-22T17:04:32.363Z,32.93
2023-04-22T17:07:35.754Z,33.36
2023-04-22T17:10:45.045Z,33.67
2023-04-22T17:13:48.073Z,33.95
2023-04-22T17:16:51.189Z,34.15
2023-04-22T17:19:54.092Z,34.50
2023-04-22T17:22:58.233Z,35.00
2023-04-22T17:26:02.889Z,34.58
2023-04-22T17:29:06.563Z,34.85
2023-04-22T17:32:11.864Z,35.29
2023-04-22T17:35:14.815Z,35.60
2023-04-22T17:38:18.059Z,35.48
2023-04-22T17:41:21.868Z,35.29
2023-04-22T17:44:28.491Z,35.65
2023-04-22T17:47:31.120Z,35.80
2023-04-22T17:50:34.380Z,35.59
2023-04-22T17:53:40.504Z,35.55
2023-04-22T17:56:43.403Z,35.77
2023-04-22T17:59:45.997Z,35.88
2023-04-22T18:02:56.195Z,36.42
2023-04-22T18:06:01.057Z,36.49
2023-04-22T18:09:04.060Z,36.77
2023-04-22T18:12:07.221Z,37.19
2023-04-22T18:15:10.143Z,37.18
2023-04-22T18:18:16.049Z,37.89
2023-04-22T18:21:19.078Z,38.00
2023-04-22T18:24:23.689Z,38.04
2023-04-22T18:27:26.545Z,38.21
2023-04-22T18:30:30.819Z,38.25
2023-04-22T18:33:34.729Z,38.28
2023-04-22T18:36:37.604Z,38.07
2023-04-22T18:39:40.279Z,38.10
2023-04-22T18:42:48.445Z,37.82
2023-04-22T18:45:51.153Z,37.88
2023-04-22T18:48:54.575Z,38.28
2023-04-22T18:51:57.656Z,37.56
2023-04-22T18:55:01.047Z,38.04
2023-04-22T18:58:03.586Z,37.99
2023-04-22T19:01:08.596Z,38.08
2023-04-22T19:04:11.852Z,38.26
2023-04-22T19:07:17.461Z,38.55
2023-04-22T19:10:20.278Z,38.75
2023-04-22T19:16:31.141Z,38.80
2023-04-22T19:19:34.702Z,39.18
2023-04-22T19:22:37.336Z,39.31
2023-04-22T19:25:41.976Z,39.32
2023-04-22T19:28:48.242Z,39.50
2023-04-22T19:31:51.650Z,39.80
2023-04-22T19:34:54.744Z,39.94
2023-04-22T19:37:57.722Z,40.01
2023-04-22T19:41:00.326Z,40.54
2023-04-22T19:44:04.467Z,40.64
2023-04-22T19:47:09.119Z,41.16
2023-04-22T19:50:14.824Z,41.59
2023-04-22T19:53:18.999Z,42.14
2023-04-22T19:56:22.585Z,41.84
2023-04-22T19:59:28.039Z,42.07
2023-04-22T20:02:34.141Z,42.92
2023-04-22T20:05:37.457Z,42.94
2023-04-22T20:08:42.367Z,43.60
2023-04-22T20:11:47.552Z,43.82
2023-04-22T20:14:50.364Z,44.53
2023-04-22T20:17:54.043Z,44.33
2023-04-22T20:20:58.628Z,43.43
2023-04-22T20:24:04.273Z,42.87
2023-04-22T20:27:07.936Z,43.08
2023-04-22T20:30:13.610Z,42.26
2023-04-22T20:33:18.067Z,42.76
2023-04-22T20:36:24.118Z,42.31
2023-04-22T20:39:28.019Z,42.51
2023-04-22T20:42:33.135Z,42.26
2023-04-22T20:45:36.431Z,42.66
2023-04-22T20:48:39.325Z,43.16
2023-04-22T20:51:42.513Z,43.27
2023-04-22T20:54:45.710Z,43.64
2023-04-22T20:57:48.568Z,44.01
2023-04-22T21:00:52.022Z,44.43
2023-04-22T21:03:59.728Z,44.72
2023-04-22T21:07:05.299Z,45.04
2023-04-22T21:10:08.820Z,45.06
2023-04-22T21:13:14.994Z,45.19
2023-04-22T21:16:19.612Z,45.59
2023-04-22T21:19:22.621Z,46.88
2023-04-22T21:22:26.780Z,46.88
2023-04-22T21:25:31.342Z,47.11
2023-04-22T21:28:34.553Z,47.57
2023-04-22T21:31:37.900Z,47.83
2023-04-22T21:34:40.774Z,47.42
2023-04-22T21:37:43.953Z,48.53
2023-04-22T21:40:52.633Z,49.32
2023-04-22T21:43:55.601Z,49.77
2023-04-22T21:46:58.274Z,49.88
2023-04-22T21:50:01.368Z,49.99
2023-04-22T21:53:04.327Z,50.13
2023-04-22T21:56:07.344Z,50.54
2023-04-22T21:59:10.733Z,49.72
2023-04-22T22:02:18.614Z,49.85
2023-04-22T22:05:21.879Z,49.50
2023-04-22T22:08:24.581Z,49.20
2023-04-22T22:11:31.265Z,49.93
2023-04-22T22:14:38.149Z,49.96
2023-04-22T22:17:41.408Z,50.24
2023-04-22T22:20:49.479Z,49.95
2023-04-22T22:23:52.575Z,50.34
2023-04-22T22:26:55.192Z,50.86
2023-04-22T22:29:58.208Z,50.41
2023-04-22T22:33:00.892Z,51.72
2023-04-22T22:36:03.932Z,50.88
2023-04-22T22:39:06.954Z,50.52
2023-04-22T22:42:10.244Z,50.91
2023-04-22T22:45:12.854Z,50.72
2023-04-22T22:48:16.053Z,51.09
2023-04-22T22:51:18.911Z,52.84
2023-04-22T22:54:22.583Z,52.24
2023-04-22T22:57:25.236Z,52.23
2023-04-22T23:00:29.187Z,51.82
2023-04-22T23:03:32.440Z,51.23
2023-04-22T23:06:35.644Z,52.14
2023-04-22T23:09:41.103Z,51.42
2023-04-22T23:12:44.064Z,52.56
2023-04-22T23:15:46.825Z,51.90
2023-04-22T23:18:50.553Z,53.22
2023-04-22T23:21:55.150Z,52.56
2023-04-22T23:24:58.455Z,52.35
2023-04-22T23:28:01.665Z,52.63
2023-04-22T23:31:07.052Z,53.12
2023-04-22T23:34:10.606Z,53.11
2023-04-22T23:37:15.055Z,53.83
2023-04-22T23:40:17.754Z,54.78
2023-04-22T23:43:21.818Z,53.43
2023-04-22T23:46:24.689Z,53.82
2023-04-22T23:49:28.956Z,52.76
2023-04-22T23:52:37.418Z,53.00
2023-04-22T23:55:40.672Z,53.50
2023-04-22T23:58:43.653Z,53.85
